Time;durP1;ratioP1;P1;durP2;ratioP2;P2;SDS_P1;SDS_P2;PMS_P1;PMS_P2;Temp;Humidity;BMP_temperature;BMP_pressure;BME280_temperature;BME280_humidity;BME280_pressure;Samples;Min_cycle;Max_cycle;Signal;HPM_P1;HPM_P2
2022/08/13 00:01:56;;;;;;;7.30;3.45;;;;;;;22.54;41.17;101475.69;5092591;28;20016;-57
2022/08/13 00:04:21;;;;;;;4.97;3.70;;;;;;;22.63;41.58;101480.13;5080103;28;20028;-57
2022/08/13 00:09:26;;;;;;;4.65;3.40;;;;;;;22.51;41.90;101481.41;5102633;28;20429;-57
2022/08/13 00:14:37;;;;;;;9.23;3.88;;;;;;;22.30;42.51;101480.94;5110769;28;20070;-57
2022/08/13 00:17:08;;;;;;;6.95;3.13;;;;;;;22.27;42.82;101484.81;5108376;28;20028;-57
2022/08/13 00:19:34;;;;;;;6.57;3.47;;;;;;;;;;5090084;28;20032;-57
2022/08/13 00:22:02;;;;;;;5.57;3.35;;;;;;;22.11;43.21;101485.47;5108219;28;20101;-57
2022/08/13 00:24:29;;;;;;;4.18;3.40;;;;;;;22.08;43.93;101483.09;5110922;28;20047;-57
2022/08/13 00:26:59;;;;;;;4.65;3.80;;;;;;;22.06;43.96;101489.66;5092665;28;20024;-57
2022/08/13 00:29:26;;;;;;;8.95;3.72;;;;;;;21.91;44.57;101481.22;5097238;28;20036;-57
2022/08/13 00:31:52;;;;;;;7.70;3.83;;;;;;;22.07;44.09;101488.69;5098681;28;20016;-57
2022/08/13 00:34:20;;;;;;;8.25;3.92;;;;;;;21.79;44.67;101483.31;5110789;28;20459;-57
2022/08/13 00:36:47;;;;;;;8.33;3.70;;;;;;;21.87;44.27;101485.28;5104521;28;20169;-58
2022/08/13 00:39:13;;;;;;;6.55;3.92;;;;;;;21.88;44.17;101489.66;5102649;28;20058;-57
2022/08/13 00:41:42;;;;;;;7.35;4.10;;;;;;;21.85;44.26;101488.13;5108870;28;20028;-57
2022/08/13 00:44:11;;;;;;;3.88;3.33;;;;;;;21.87;44.74;101490.69;5111819;28;20035;-57
2022/08/13 00:46:38;;;;;;;4.18;3.78;;;;;;;21.82;44.51;101485.72;5105237;28;20525;-57
2022/08/13 00:49:05;;;;;;;6.25;3.90;;;;;;;21.71;45.01;101489.53;5107484;28;20039;-57
2022/08/13 00:51:33;;;;;;;7.40;3.78;;;;;;;21.59;45.24;101492.59;5109223;28;20051;-57
2022/08/13 00:54:02;;;;;;;7.95;3.67;;;;;;;21.55;45.18;101492.91;5107942;28;20038;-57
2022/08/13 00:56:31;;;;;;;5.30;3.92;;;;;;;21.68;44.79;101481.72;5106192;28;20087;-57
2022/08/13 00:59:07;;;;;;;7.78;3.40;;;;;;;21.66;44.86;101491.84;5076324;28;20016;-57
2022/08/13 01:01:35;;;;;;;5.45;3.63;;;;;;;21.61;45.22;101491.44;5085685;28;20122;-57
2022/08/13 01:04:04;;;;;;;6.93;3.88;;;;;;;21.61;44.63;101493.28;5091359;28;20497;-57
2022/08/13 01:06:32;;;;;;;6.88;3.78;;;;;;;21.57;44.70;101498.19;5100822;28;20024;-57
2022/08/13 01:08:57;;;;;;;8.98;4.00;;;;;;;21.45;45.12;101494.81;5107751;28;20080;-57
2022/08/13 01:11:24;;;;;;;10.02;4.50;;;;;;;21.48;45.30;101488.25;5092291;28;20027;-57
2022/08/13 01:13:51;;;;;;;5.72;3.88;;;;;;;21.38;45.37;101493.72;5106652;28;20027;-57
2022/08/13 01:16:17;;;;;;;8.70;3.95;;;;;;;21.44;45.56;101489.56;5091235;28;20039;-57
2022/08/13 01:18:48;;;;;;;7.40;3.75;;;;;;;21.38;45.96;101492.88;5110407;28;20046;-57
2022/08/13 01:21:23;;;;;;;5.57;4.32;;;;;;;21.35;46.15;101490.44;5110224;28;20024;-57
2022/08/13 01:23:51;;;;;;;9.25;4.30;;;;;;;21.22;46.28;101494.34;5110438;28;20042;-57
2022/08/13 01:26:19;;;;;;;8.32;4.20;;;;;;;21.19;46.03;101481.13;5108222;28;20027;-57
2022/08/13 01:28:46;;;;;;;6.25;4.07;;;;;;;21.24;45.78;101491.50;5088038;28;20024;-57
2022/08/13 01:31:15;;;;;;;5.85;3.80;;;;;;;21.16;46.13;101494.13;5101338;28;20470;-57
2022/08/13 01:33:45;;;;;;;6.13;4.30;;;;;;;21.02;45.93;101503.56;5108908;28;20034;-57
2022/08/13 01:36:11;;;;;;;5.43;4.05;;;;;;;21.06;46.38;101499.53;5085952;28;20034;-57
2022/08/13 01:38:40;;;;;;;5.15;3.80;;;;;;;21.00;46.05;101501.03;5093866;28;20042;-57
2022/08/13 01:41:08;;;;;;;7.23;3.90;;;;;;;20.90;46.84;101497.50;5110566;28;20361;-57
2022/08/13 01:43:36;;;;;;;5.80;3.92;;;;;;;20.92;46.90;101497.34;5111224;28;20020;-57
2022/08/13 01:46:04;;;;;;;9.98;3.95;;;;;;;20.90;47.58;101493.94;5105991;28;20047;-57
2022/08/13 01:51:23;;;;;;;5.00;3.78;;;;;;;20.76;48.17;101487.16;5096815;28;20069;-57
2022/08/13 01:54:09;;;;;;;8.75;4.18;;;;;;;20.68;48.91;101489.72;5087672;28;20044;-57
2022/08/13 01:56:35;;;;;;;;;;;;;;;21.01;45.89;101482.94;5062837;28;20037;-57
2022/08/13 01:59:02;;;;;;;8.13;4.22;;;;;;;20.75;48.76;101483.59;5068242;28;19915;-57
2022/08/13 02:01:30;;;;;;;5.55;4.28;;;;;;;20.74;49.29;101486.47;5080550;28;20446;-57
2022/08/13 02:03:58;;;;;;;6.47;4.35;;;;;;;20.67;49.22;101486.19;5089085;28;20513;-57
2022/08/13 02:06:26;;;;;;;;;;;;;;;20.89;46.76;101486.84;5089481;28;21345;-57
2022/08/13 02:08:57;;;;;;;5.40;4.30;;;;;;;20.62;48.60;101486.63;5068236;28;19955;-57
2022/08/13 02:11:23;;;;;;;8.95;4.50;;;;;;;20.54;49.13;101482.97;5079007;28;20062;-57
2022/08/13 02:13:52;;;;;;;5.93;4.40;;;;;;;20.57;49.09;101485.38;5082687;28;20067;-57
2022/08/13 02:16:18;;;;;;;5.35;4.47;;;;;;;20.49;49.47;101480.66;5061602;28;20030;-57
2022/08/13 02:18:44;;;;;;;7.97;4.82;;;;;;;20.47;49.78;101479.97;5090438;28;20106;-57
2022/08/13 02:21:11;;;;;;;7.70;4.45;;;;;;;20.38;49.80;101481.69;5063464;28;20119;-57
2022/08/13 02:23:37;;;;;;;6.03;4.50;;;;;;;20.34;49.37;101477.56;5080100;28;20529;-57
2022/08/13 02:26:05;;;;;;;10.10;4.45;;;;;;;20.29;49.87;101476.28;5074380;28;20453;-57
2022/08/13 02:28:39;;;;;;;5.68;4.13;;;;;;;20.32;49.36;101482.22;5089835;28;20036;-57
2022/08/13 02:31:05;;;;;;;7.68;4.50;;;;;;;20.29;49.42;101485.22;5112884;28;20030;-57
2022/08/13 02:33:30;;;;;;;5.40;4.43;;;;;;;20.24;49.81;101486.69;5111167;28;20031;-57
2022/08/13 02:35:57;;;;;;;7.25;4.82;;;;;;;20.11;50.16;101484.25;5100440;28;20032;-57
2022/08/13 02:38:25;;;;;;;8.60;4.20;;;;;;;20.12;50.48;101486.00;5104254;28;20085;-57
2022/08/13 02:43:37;;;;;;;6.65;4.57;;;;;;;20.06;51.33;101478.44;5096907;28;20058;-57
2022/08/13 02:46:03;;;;;;;5.30;4.38;;;;;;;20.07;51.38;101482.84;5102761;28;20023;-57
2022/08/13 02:48:29;;;;;;;5.35;4.40;;;;;;;20.02;51.50;101475.16;5091067;28;20044;-57
2022/08/13 02:50:57;;;;;;;9.35;4.70;;;;;;;19.97;51.45;101477.44;5100809;28;20024;-57
2022/08/13 02:53:25;;;;;;;5.35;4.55;;;;;;;19.92;51.34;101479.72;5105479;28;20027;-57
2022/08/13 02:55:51;;;;;;;5.63;4.45;;;;;;;19.81;51.95;101475.31;5107614;28;20073;-57
2022/08/13 02:58:17;;;;;;;5.43;4.28;;;;;;;19.90;51.36;101482.56;5102431;28;20035;-57
2022/08/13 03:00:48;;;;;;;8.25;4.70;;;;;;;19.80;51.52;101489.81;5098103;28;20024;-57
2022/08/13 03:03:15;;;;;;;5.18;4.13;;;;;;;19.82;51.50;101485.09;5111699;27;20077;-57
2022/08/13 03:05:44;;;;;;;7.57;4.45;;;;;;;19.77;51.40;101481.16;5111242;28;20587;-57
2022/08/13 03:08:11;;;;;;;6.38;4.20;;;;;;;19.77;51.42;101479.31;5113960;28;20063;-57
2022/08/13 03:10:39;;;;;;;4.97;4.38;;;;;;;19.69;51.18;101476.44;5104888;28;20040;-57
2022/08/13 03:13:17;;;;;;;8.50;4.88;;;;;;;19.71;51.23;101485.25;5109129;28;20023;-57
2022/08/13 03:15:51;;;;;;;5.57;4.40;;;;;;;19.67;51.11;101486.53;5106220;28;20031;-57
2022/08/13 03:18:16;;;;;;;6.60;4.93;;;;;;;19.65;51.38;101481.28;5113809;28;20019;-57
2022/08/13 03:20:42;;;;;;;6.60;4.80;;;;;;;19.55;51.07;101476.81;5111398;28;20031;-57
2022/08/13 03:23:09;;;;;;;7.18;4.50;;;;;;;19.49;51.49;101486.31;5112134;28;20496;-57
2022/08/13 03:25:35;;;;;;;8.90;4.40;;;;;;;19.58;50.85;101488.19;5104864;28;20027;-57
2022/08/13 03:28:01;;;;;;;6.90;4.85;;;;;;;19.53;50.99;101487.78;5107587;28;20019;-57
2022/08/13 03:30:28;;;;;;;5.57;4.80;;;;;;;19.47;50.99;101488.31;5105265;28;20540;-57
2022/08/13 03:32:54;;;;;;;7.90;4.35;;;;;;;19.44;51.31;101489.47;5113331;28;20058;-57
2022/08/13 03:35:24;;;;;;;6.18;4.40;;;;;;;19.35;51.52;101490.25;5105690;28;20047;-57
2022/08/13 03:37:53;;;;;;;6.95;4.93;;;;;;;19.31;51.42;101478.06;5102903;28;20534;-57
2022/08/13 03:40:21;;;;;;;5.80;4.55;;;;;;;19.38;51.50;101481.88;5112058;28;20027;-57
2022/08/13 03:42:49;;;;;;;5.97;4.60;;;;;;;19.33;51.50;101486.88;5110297;28;20031;-57
2022/08/13 03:45:16;;;;;;;10.07;4.95;;;;;;;19.21;51.72;101488.81;5108371;28;20023;-57
2022/08/13 03:47:42;;;;;;;4.82;4.18;;;;;;;19.22;51.73;101487.81;5104511;28;20095;-57
2022/08/13 03:50:10;;;;;;;5.65;4.35;;;;;;;19.25;51.42;101486.69;5110864;28;20143;-57
2022/08/13 03:52:37;;;;;;;7.07;4.70;;;;;;;19.20;51.67;101483.56;5110275;28;20070;-57
2022/08/13 03:55:06;;;;;;;8.52;4.90;;;;;;;19.13;51.69;101471.63;5106286;28;20389;-57
2022/08/13 03:57:33;;;;;;;8.13;5.60;;;;;;;19.12;52.05;101486.06;5091384;28;20043;-57
2022/08/13 03:59:59;;;;;;;8.35;5.05;;;;;;;19.08;52.11;101485.50;5105462;28;20024;-57
2022/08/13 04:02:25;;;;;;;6.22;4.35;;;;;;;19.02;52.09;101475.25;5111719;28;20031;-57
2022/08/13 04:04:51;;;;;;;7.20;4.78;;;;;;;19.03;52.29;101477.84;5101889;28;20043;-57
2022/08/13 04:07:19;;;;;;;9.93;4.95;;;;;;;18.98;52.21;101484.63;5108102;28;20390;-57
2022/08/13 04:09:45;;;;;;;5.85;4.72;;;;;;;18.99;52.20;101483.63;5111745;28;20474;-57
2022/08/13 04:12:12;;;;;;;6.90;4.90;;;;;;;18.89;52.21;101475.50;5086753;28;20046;-57
2022/08/13 04:14:42;;;;;;;5.28;4.78;;;;;;;18.90;52.58;101476.34;5091875;28;20027;-57
2022/08/13 04:17:13;;;;;;;7.00;4.97;;;;;;;18.79;52.44;101475.44;5097382;28;20471;-57
2022/08/13 04:19:39;;;;;;;7.65;4.70;;;;;;;18.83;52.65;101479.59;5091870;28;20081;-57
2022/08/13 04:22:06;;;;;;;8.38;5.00;;;;;;;18.83;52.37;101484.13;5105856;28;20957;-57
2022/08/13 04:24:33;;;;;;;7.55;4.60;;;;;;;18.80;52.38;101490.66;5095207;28;20054;-57
2022/08/13 04:26:59;;;;;;;7.18;4.95;;;;;;;18.73;52.59;101489.47;5101007;28;20512;-57
2022/08/13 04:29:24;;;;;;;7.47;4.90;;;;;;;18.79;52.43;101490.75;5110383;28;20032;-57
2022/08/13 04:31:53;;;;;;;8.98;4.85;;;;;;;18.65;52.95;101494.66;5092569;28;20093;-57
2022/08/13 04:34:20;;;;;;;9.88;5.22;;;;;;;18.60;53.16;101494.19;5087784;28;20024;-57
2022/08/13 04:36:45;;;;;;;7.05;5.15;;;;;;;18.63;53.11;101490.38;5088862;28;20082;-57
2022/08/13 04:39:11;;;;;;;7.80;5.00;;;;;;;18.69;52.94;101493.38;5087371;28;20048;-57
2022/08/13 04:41:36;;;;;;;7.90;4.63;;;;;;;18.61;53.23;101496.75;5099627;28;20067;-57
2022/08/13 04:44:02;;;;;;;7.25;4.97;;;;;;;18.58;53.17;101493.47;5092819;28;20024;-57
2022/08/13 04:46:28;;;;;;;7.07;4.55;;;;;;;18.61;53.36;101493.19;5100278;28;20032;-57
2022/08/13 04:48:55;;;;;;;7.28;5.00;;;;;;;18.63;53.43;101490.38;5105345;28;20039;-57
2022/08/13 04:51:20;;;;;;;5.57;4.93;;;;;;;18.55;54.13;101493.72;5109275;28;20528;-57
2022/08/13 04:53:46;;;;;;;5.85;4.80;;;;;;;18.61;53.60;101487.81;5090307;28;20020;-57
2022/08/13 04:56:12;;;;;;;6.80;4.88;;;;;;;18.58;53.82;101496.16;5089646;28;20111;-57
2022/08/13 04:58:38;;;;;;;6.18;4.72;;;;;;;18.59;53.79;101489.78;5105717;28;20024;-57
2022/08/13 05:01:06;;;;;;;4.80;4.28;;;;;;;18.58;54.10;101497.00;5109019;28;20050;-57
2022/08/13 05:03:32;;;;;;;9.37;5.27;;;;;;;18.59;53.94;101497.88;5073803;28;20078;-57
2022/08/13 05:05:57;;;;;;;10.15;4.93;;;;;;;18.56;54.03;101495.41;5071494;28;20530;-57
2022/08/13 05:08:23;;;;;;;10.75;5.72;;;;;;;18.56;54.25;101493.59;5071307;28;20036;-57
2022/08/13 05:10:50;;;;;;;10.27;5.82;;;;;;;18.51;54.49;101498.53;5071852;28;20035;-57
2022/08/13 05:13:32;;;;;;;10.27;5.85;;;;;;;18.55;54.84;101504.50;5107542;28;20031;-57
2022/08/13 05:16:01;;;;;;;8.88;5.10;;;;;;;18.50;54.91;101506.72;5110100;28;20030;-57
2022/08/13 05:18:28;;;;;;;9.27;5.75;;;;;;;18.59;54.57;101504.13;5110517;28;20114;-57
2022/08/13 05:20:56;;;;;;;7.88;5.07;;;;;;;18.66;54.59;101499.03;5102197;28;20047;-57
2022/08/13 05:23:24;;;;;;;9.93;5.15;;;;;;;18.61;54.77;101503.97;5111666;28;20027;-57
2022/08/13 05:25:50;;;;;;;9.73;5.20;;;;;;;18.67;54.56;101510.66;5110168;28;20060;-57
2022/08/13 05:28:17;;;;;;;14.63;5.72;;;;;;;18.74;54.97;101511.91;5111108;28;20023;-57
2022/08/13 05:30:46;;;;;;;8.68;4.93;;;;;;;18.83;53.29;101516.47;5111723;28;20485;-57
2022/08/13 05:33:23;;;;;;;11.63;5.32;;;;;;;18.88;53.51;101514.22;5111776;28;20023;-57
2022/08/13 05:35:57;;;;;;;9.90;5.13;;;;;;;18.95;53.63;101503.78;5111796;28;20145;-57
2022/08/13 05:38:24;;;;;;;9.77;5.03;;;;;;;19.03;54.09;101512.00;5112389;28;20466;-57
2022/08/13 05:40:51;;;;;;;7.20;5.07;;;;;;;19.09;53.73;101508.81;5097142;27;20031;-57
2022/08/13 05:43:19;;;;;;;11.35;5.68;;;;;;;19.13;53.74;101498.59;5095263;28;20450;-57
2022/08/13 05:46:02;;;;;;;12.10;5.00;;;;;;;19.28;53.42;101503.44;5094209;28;20214;-57
2022/08/13 05:48:41;;;;;;;6.78;4.63;;;;;;;19.21;54.01;101496.06;5094556;28;20403;-57
2022/08/13 05:51:13;;;;;;;12.15;5.38;;;;;;;19.38;52.50;101510.72;5093840;28;20031;-57
2022/08/13 05:53:38;;;;;;;11.10;5.00;;;;;;;19.42;53.58;101510.31;5096961;28;20382;-57
2022/08/13 05:56:08;;;;;;;9.27;5.07;;;;;;;19.50;52.45;101507.78;5115354;28;20024;-57
2022/08/13 05:58:34;;;;;;;7.60;5.38;;;;;;;19.72;51.55;101514.81;5115045;28;20398;-57
2022/08/13 06:03:44;;;;;;;8.88;4.95;;;;;;;19.86;51.94;101508.16;5111063;28;20446;-57
2022/08/13 06:06:12;;;;;;;8.43;5.20;;;;;;;20.07;49.92;101502.59;5096771;28;20111;-57
2022/08/13 06:08:40;;;;;;;10.25;6.18;;;;;;;20.20;49.07;101505.84;5115218;28;20066;-57
2022/08/13 06:11:11;;;;;;;9.90;4.93;;;;;;;20.22;50.63;101503.03;5093381;28;20157;-57
2022/08/13 06:13:38;;;;;;;8.93;5.82;;;;;;;20.43;48.41;101510.97;5093009;28;20024;-57
2022/08/13 06:16:09;;;;;;;6.32;4.80;;;;;;;20.59;48.66;101508.56;5112409;28;20062;-57
2022/08/13 06:18:36;;;;;;;7.13;5.30;;;;;;;20.70;48.76;101504.81;5114988;28;20046;-57
2022/08/13 06:21:07;;;;;;;13.23;5.60;;;;;;;20.82;47.77;101505.47;5115234;28;20493;-57
2022/08/13 06:23:35;;;;;;;10.63;5.18;;;;;;;20.91;48.34;101510.00;5115150;28;20051;-57
2022/08/13 06:26:01;;;;;;;11.93;4.78;;;;;;;21.06;47.67;101499.53;5111568;28;20069;-57
2022/08/13 06:28:29;;;;;;;11.73;5.20;;;;;;;21.13;47.23;101502.53;5094583;28;20429;-57
2022/08/13 06:31:00;;;;;;;12.13;5.32;;;;;;;21.10;46.46;101477.47;5093233;28;20065;-57
2022/08/13 06:33:28;;;;;;;10.60;5.35;;;;;;;21.36;46.74;101514.69;5094467;28;20024;-57
2022/08/13 06:35:59;;;;;;;7.80;5.57;;;;;;;21.53;46.26;101513.00;5094325;28;20396;-57
2022/08/13 06:38:32;;;;;;;9.55;5.35;;;;;;;21.64;46.13;101510.09;5094008;28;20028;-57
2022/08/13 06:41:01;;;;;;;8.38;4.90;;;;;;;21.72;46.84;101518.28;5073599;28;20021;-57
2022/08/13 06:43:40;;;;;;;7.38;5.25;;;;;;;21.81;45.07;101521.09;5073344;28;20031;-57
2022/08/13 06:46:06;;;;;;;10.90;4.88;;;;;;;21.93;45.33;101517.16;5073870;28;20024;-57
2022/08/13 06:48:33;;;;;;;10.70;4.93;;;;;;;22.06;45.22;101514.91;5073427;28;20087;-57
2022/08/13 06:51:00;;;;;;;9.70;4.30;;;;;;;22.09;46.40;101511.91;5112184;28;20032;-57
2022/08/13 06:53:26;;;;;;;10.93;4.18;;;;;;;22.10;45.35;101501.91;5114507;28;20023;-57
2022/08/13 06:55:54;;;;;;;5.90;4.57;;;;;;;22.29;43.76;101512.59;5114557;28;20019;-57
2022/08/13 06:58:25;;;;;;;6.93;4.75;;;;;;;22.44;43.33;101515.56;5091988;28;20479;-57
2022/08/13 07:00:53;;;;;;;8.32;4.20;;;;;;;22.52;43.44;101514.78;5105157;28;20493;-57
2022/08/13 07:03:20;;;;;;;10.15;3.67;;;;;;;22.54;44.99;101510.06;5114126;28;20466;-57
2022/08/13 07:05:46;;;;;;;9.07;3.70;;;;;;;22.47;46.15;101520.69;5114444;28;20023;-57
2022/08/13 07:08:12;;;;;;;10.60;4.13;;;;;;;22.50;43.61;101511.38;5113650;28;20024;-57
2022/08/13 07:10:51;;;;;;;4.55;3.85;;;;;;;22.51;43.30;101515.81;5110367;28;20030;-57
2022/08/13 07:13:17;;;;;;;8.63;4.13;;;;;;;22.60;43.30;101520.28;5113786;28;20024;-57
2022/08/13 07:15:51;;;;;;;7.72;4.30;;;;;;;22.62;43.31;101510.13;5114301;28;20107;-57
2022/08/13 07:18:17;;;;;;;7.95;4.07;;;;;;;22.76;42.98;101514.09;5113923;28;20028;-57
2022/08/13 07:20:43;;;;;;;8.20;4.13;;;;;;;22.76;43.13;101516.81;5111138;28;20478;-57
2022/08/13 07:23:09;;;;;;;6.53;3.65;;;;;;;22.81;43.79;101515.31;5111673;28;20139;-58
2022/08/13 07:25:35;;;;;;;7.07;3.78;;;;;;;22.82;43.48;101522.44;5111374;28;20068;-58
2022/08/13 07:28:02;;;;;;;7.55;3.90;;;;;;;22.96;42.68;101518.31;5113316;28;20028;-58
2022/08/13 07:30:28;;;;;;;8.57;3.88;;;;;;;23.03;43.06;101515.81;5113636;28;20386;-58
2022/08/13 07:32:53;;;;;;;10.35;3.88;;;;;;;23.11;42.16;101522.13;5095373;28;20050;-58
2022/08/13 07:35:23;;;;;;;11.90;3.40;;;;;;;23.15;41.83;101528.09;5111925;28;20466;-57
2022/08/13 07:37:52;;;;;;;8.07;3.50;;;;;;;23.26;41.94;101530.50;5109629;28;20436;-57
2022/08/13 07:40:19;;;;;;;7.13;3.20;;;;;;;23.29;41.69;101519.31;5111772;28;20023;-58
2022/08/13 07:42:45;;;;;;;4.30;3.00;;;;;;;23.44;41.58;101526.84;5109620;28;20019;-58
2022/08/13 07:45:23;;;;;;;6.93;3.45;;;;;;;23.48;41.51;101528.22;5113482;28;20470;-57
2022/08/13 07:47:50;;;;;;;6.35;2.92;;;;;;;23.46;41.02;101520.25;5111584;28;20083;-57
2022/08/13 07:50:16;;;;;;;6.05;3.00;;;;;;;23.43;42.90;101519.72;5096023;28;20031;-57
2022/08/13 07:52:41;;;;;;;8.77;3.28;;;;;;;23.53;41.25;101517.69;5091801;28;20036;-57
2022/08/13 07:55:09;;;;;;;4.93;3.13;;;;;;;23.62;42.47;101524.00;5094587;28;20034;-57
2022/08/13 07:57:36;;;;;;;7.18;3.00;;;;;;;23.80;40.63;101528.34;5111295;28;20439;-57
2022/08/13 08:00:04;;;;;;;4.80;2.90;;;;;;;23.97;40.80;101525.63;5112867;28;20024;-56
2022/08/13 08:02:32;;;;;;;4.72;3.13;;;;;;;24.07;41.34;101528.22;5111609;28;20493;-57
2022/08/13 08:04:57;;;;;;;5.13;2.78;;;;;;;24.16;39.94;101530.75;5093058;28;20066;-56
2022/08/13 08:07:26;;;;;;;8.25;2.92;;;;;;;24.19;39.65;101526.84;5110847;28;20119;-60
2022/08/13 08:10:09;;;;;;;5.80;2.80;;;;;;;24.36;39.25;101523.13;5090288;28;20407;-61
2022/08/13 08:12:36;;;;;;;4.10;2.80;;;;;;;24.37;40.25;101529.41;5063597;28;20044;-60
2022/08/13 08:15:09;;;;;;;7.70;2.85;;;;;;;24.47;39.84;101530.09;5069976;28;20037;-60
2022/08/13 08:17:34;;;;;;;4.90;2.80;;;;;;;24.54;39.10;101525.69;5069912;28;20107;-60
2022/08/13 08:20:01;;;;;;;7.75;2.95;;;;;;;24.65;39.18;101533.50;5069904;28;20483;-62
2022/08/13 08:22:27;;;;;;;5.20;2.42;;;;;;;24.75;39.88;101524.28;5055669;28;20035;-61
2022/08/13 08:24:53;;;;;;;4.78;2.40;;;;;;;24.77;38.33;101528.53;5072974;28;20149;-63
2022/08/13 08:27:19;;;;;;;7.90;2.78;;;;;;;24.84;38.17;101518.66;5073076;28;20474;-60
2022/08/13 08:29:46;;;;;;;4.28;2.47;;;;;;;24.99;38.49;101526.94;5072459;28;20067;-60
2022/08/13 08:32:13;;;;;;;5.55;2.60;;;;;;;25.13;38.64;101528.97;5090246;28;20483;-60
2022/08/13 08:34:47;;;;;;;6.05;2.63;;;;;;;25.09;37.76;101530.34;5087784;28;20034;-61
2022/08/13 08:42:48;;;;;;;5.63;2.58;;;;;;;25.52;37.38;101530.00;5071499;28;20063;-62
2022/08/13 08:45:18;;;;;;;5.18;2.67;;;;;;;25.64;37.68;101544.06;5109973;28;20073;-61
2022/08/13 08:47:44;;;;;;;5.72;2.78;;;;;;;25.73;36.59;101540.25;5110450;28;20049;-61
2022/08/13 08:50:13;;;;;;;6.78;2.25;;;;;;;25.71;36.25;101534.16;5110629;28;20039;-60
2022/08/13 08:55:25;;;;;;;6.07;2.58;;;;;;;25.72;36.68;101531.25;5112361;28;20043;-61
2022/08/13 08:57:52;;;;;;;5.13;2.35;;;;;;;25.93;36.23;101529.78;5091284;28;20040;-62
2022/08/13 09:00:20;;;;;;;6.57;2.40;;;;;;;25.96;36.36;101537.59;5112162;28;20032;-62
2022/08/13 09:02:50;;;;;;;3.03;2.53;;;;;;;25.96;37.47;101535.72;5111833;28;20028;-61
2022/08/13 09:05:21;;;;;;;6.13;2.50;;;;;;;26.25;36.71;101518.63;5111572;28;20047;-62
2022/08/13 09:07:47;;;;;;;8.70;2.78;;;;;;;26.35;35.75;101529.25;5110015;28;20090;-60
2022/08/13 09:10:17;;;;;;;6.45;2.47;;;;;;;26.42;34.99;101527.50;5110555;28;20439;-60
2022/08/13 09:12:45;;;;;;;5.38;2.50;;;;;;;26.61;36.00;101526.16;5109916;28;20027;-61
2022/08/13 09:15:21;;;;;;;5.85;2.42;;;;;;;26.71;35.39;101513.09;5110727;28;20024;-61
2022/08/13 09:17:51;;;;;;;6.13;2.58;;;;;;;26.79;34.53;101522.22;5105427;28;20043;-61
2022/08/13 09:20:22;;;;;;;7.10;2.50;;;;;;;26.94;36.09;101515.75;5106060;28;20058;-62
2022/08/13 09:23:00;;;;;;;5.50;2.28;;;;;;;26.95;36.56;101511.97;5108519;28;20440;-60
2022/08/13 09:25:27;;;;;;;5.95;1.88;;;;;;;26.95;35.68;101514.72;5111483;28;20023;-57
2022/08/13 09:27:53;;;;;;;3.75;2.20;;;;;;;26.94;35.36;101507.56;5085684;28;20027;-58
2022/08/13 09:30:19;;;;;;;6.80;2.60;;;;;;;27.16;34.45;101518.59;5101726;28;20493;-57
2022/08/13 09:32:46;;;;;;;5.97;2.80;;;;;;;27.38;33.84;101516.75;5101365;28;20032;-58
2022/08/13 09:35:12;;;;;;;6.38;2.28;;;;;;;27.31;33.50;101516.69;5073682;28;20080;-58
2022/08/13 09:37:39;;;;;;;5.38;2.00;;;;;;;27.39;34.35;101518.47;5091289;28;20389;-57
2022/08/13 09:40:11;;;;;;;4.32;2.20;;;;;;;27.42;33.33;101509.06;5091391;28;20020;-57
2022/08/13 09:43:02;;;;;;;6.07;2.08;;;;;;;27.46;33.18;101513.94;5097947;28;20432;-57
2022/08/13 09:45:29;;;;;;;6.05;1.95;;;;;;;27.57;32.42;101505.22;5090575;28;20043;-57
2022/08/13 09:47:56;;;;;;;11.05;2.30;;;;;;;27.68;32.80;101519.41;5109764;28;20047;-57
2022/08/13 09:50:23;;;;;;;4.57;2.03;;;;;;;27.78;31.93;101514.50;5106666;28;20039;-57
2022/08/13 09:52:51;;;;;;;5.07;2.08;;;;;;;28.02;32.16;101505.94;5090013;28;20478;-62
2022/08/13 09:55:17;;;;;;;3.78;1.98;;;;;;;28.11;31.60;101505.81;5095128;28;20510;-60
2022/08/13 09:58:10;;;;;;;6.65;1.60;;;;;;;27.98;31.16;101507.38;5110082;28;20035;-60
2022/08/13 10:00:36;;;;;;;3.15;1.63;;;;;;;28.05;30.66;101499.22;5086538;28;20036;-64
2022/08/13 10:03:04;;;;;;;2.35;1.73;;;;;;;28.14;31.71;101497.22;5108809;28;20040;-64
2022/08/13 10:05:37;;;;;;;4.18;1.95;;;;;;;28.19;31.27;101492.00;5111272;28;20019;-65
2022/08/13 10:08:13;;;;;;;4.10;1.70;;;;;;;28.28;31.71;101491.66;5093333;28;20398;-64
2022/08/13 10:10:39;;;;;;;7.65;1.90;;;;;;;28.41;31.31;101488.19;5093384;28;20471;-62
2022/08/13 10:13:04;;;;;;;5.55;1.83;;;;;;;28.37;30.64;101484.16;5109622;28;20033;-63
2022/08/13 10:15:30;;;;;;;5.57;1.63;;;;;;;28.49;30.24;101479.00;5069652;28;20051;-66
2022/08/13 10:18:02;;;;;;;1.83;1.45;;;;;;;28.59;30.28;101475.91;5077489;28;20164;-62
2022/08/13 10:20:36;;;;;;;1.88;1.50;;;;;;;28.55;29.15;101483.69;5090926;28;20032;-66
2022/08/13 10:23:05;;;;;;;2.97;1.60;;;;;;;28.66;28.00;101476.81;5108245;28;20027;-65
2022/08/13 10:25:31;;;;;;;1.67;1.40;;;;;;;28.62;28.20;101476.38;5106139;28;20024;-63
2022/08/13 10:27:57;;;;;;;4.68;1.50;;;;;;;28.83;28.46;101478.19;5111838;28;20166;-57
2022/08/13 10:30:25;;;;;;;3.78;1.48;;;;;;;28.81;28.24;101472.06;5111705;28;20032;-56
2022/08/13 10:32:54;;;;;;;2.55;1.40;;;;;;;28.76;28.28;101475.38;5110678;28;20517;-57
2022/08/13 10:35:20;;;;;;;2.55;1.48;;;;;;;28.83;27.96;101459.00;5094327;28;20114;-57
2022/08/13 10:37:49;;;;;;;2.95;1.52;;;;;;;29.03;27.35;101472.81;5093949;28;20107;-56
2022/08/13 10:40:14;;;;;;;2.72;1.30;;;;;;;29.18;26.91;101473.53;5094666;28;20027;-57
2022/08/13 10:42:44;;;;;;;3.33;1.00;;;;;;;29.41;27.22;101466.84;5092544;28;20031;-57
2022/08/13 10:45:14;;;;;;;3.95;1.52;;;;;;;29.54;26.67;101477.03;5097033;28;20441;-57
2022/08/13 10:47:50;;;;;;;2.40;1.50;;;;;;;29.40;27.94;101468.75;5073773;28;20048;-64
2022/08/13 10:50:19;;;;;;;3.13;1.50;;;;;;;29.47;27.47;101467.94;5089543;28;20027;-66
2022/08/13 10:52:46;;;;;;;2.55;1.30;;;;;;;29.39;26.42;101458.84;5099372;28;20427;-66
2022/08/13 10:55:14;;;;;;;3.22;1.40;;;;;;;29.49;26.85;101455.72;5113642;28;20038;-65
2022/08/13 10:57:41;;;;;;;2.22;1.55;;;;;;;29.71;26.04;101463.78;5113689;28;20390;-65
2022/08/13 11:00:11;;;;;;;3.60;1.60;;;;;;;29.84;25.80;101466.56;5112000;28;20493;-62
2022/08/13 11:02:37;;;;;;;3.28;1.40;;;;;;;29.91;25.74;101456.44;5093168;28;20077;-62
2022/08/13 11:05:13;;;;;;;1.30;1.15;;;;;;;30.04;25.98;101464.69;5093698;28;20032;-65
2022/08/13 11:07:39;;;;;;;1.83;1.30;;;;;;;30.08;25.61;101460.44;5093539;28;20530;-64
2022/08/13 11:10:06;;;;;;;2.67;1.50;;;;;;;30.18;26.09;101464.66;5101397;28;20474;-65
2022/08/13 11:12:33;;;;;;;9.23;1.60;;;;;;;30.20;25.57;101466.16;5102724;28;20020;-65
2022/08/13 11:15:00;;;;;;;1.73;1.10;;;;;;;30.23;25.27;101454.78;5093060;28;20023;-66
2022/08/13 11:17:25;;;;;;;1.60;1.25;;;;;;;30.27;25.30;101452.47;5093703;28;20020;-58
2022/08/13 11:19:51;;;;;;;2.55;1.30;;;;;;;30.22;25.64;101458.59;5096155;28;20034;-59
2022/08/13 11:22:18;;;;;;;3.47;1.60;;;;;;;30.39;25.24;101450.78;5099668;28;20027;-59
2022/08/13 11:24:44;;;;;;;1.45;1.23;;;;;;;30.32;24.44;101447.16;5113762;28;20096;-59
2022/08/13 11:27:10;;;;;;;2.97;1.20;;;;;;;30.45;24.86;101436.19;5112348;28;20119;-59
2022/08/13 11:29:36;;;;;;;1.98;1.15;;;;;;;30.54;24.01;101437.66;5105115;27;20106;-59
2022/08/13 11:32:04;;;;;;;3.78;1.30;;;;;;;30.54;24.69;101421.16;5093682;28;20020;-61
2022/08/13 11:34:30;;;;;;;4.50;1.15;;;;;;;30.55;24.56;101430.25;5089956;28;20082;-60
2022/08/13 11:36:55;;;;;;;4.40;1.50;;;;;;;30.53;24.60;101435.09;5092716;28;20055;-70
2022/08/13 11:39:23;;;;;;;1.45;1.30;;;;;;;30.47;24.30;101430.47;5093011;28;20524;-62
2022/08/13 11:41:48;;;;;;;2.13;1.30;;;;;;;30.46;24.36;101418.66;5092683;28;20118;-61
2022/08/13 11:44:17;;;;;;;5.07;1.23;;;;;;;30.73;25.74;101427.66;5111202;28;20119;-64
2022/08/13 11:46:43;;;;;;;;;;;;;;;30.66;25.52;101431.50;5114116;28;20103;-63
2022/08/13 11:49:13;;;;;;;3.00;1.40;;;;;;;30.59;25.20;101420.53;5101809;28;20018;-62
2022/08/13 11:51:39;;;;;;;5.07;1.52;;;;;;;30.79;25.34;101420.47;5113307;28;20461;-63
2022/08/13 11:54:04;;;;;;;3.35;1.30;;;;;;;30.81;24.75;101418.38;5111602;27;20062;-66